Time;durP1;ratioP1;P1;durP2;ratioP2;P2;SDS_P1;SDS_P2;PMS_P1;PMS_P2;Temp;Humidity;BMP_temperature;BMP_pressure;BME280_temperature;BME280_humidity;BME280_pressure;Samples;Min_cycle;Max_cycle;Signal;HPM_P1;HPM_P2
2023/01/19 00:00:56;;;;;;;4.40;3.67;;;7.60;96.70;;;;;;4962282;28;20125;-73
2023/01/19 00:03:24;;;;;;;5.63;3.75;;;7.50;96.70;;;;;;4957885;28;20129;-73
2023/01/19 00:05:52;;;;;;;5.18;3.70;;;7.40;96.70;;;;;;4958457;28;20050;-72
2023/01/19 00:08:20;;;;;;;4.90;3.75;;;7.30;96.70;;;;;;4952065;28;20058;-72
2023/01/19 00:10:52;;;;;;;6.00;4.13;;;7.30;96.70;;;;;;4953074;28;20047;-72
2023/01/19 00:13:22;;;;;;;5.80;3.97;;;7.30;96.70;;;;;;4962605;28;20062;-72
2023/01/19 00:15:50;;;;;;;4.70;4.20;;;7.30;96.70;;;;;;4962211;28;20050;-72
2023/01/19 00:18:18;;;;;;;6.20;4.18;;;7.20;96.70;;;;;;4945443;28;20047;-72
2023/01/19 00:20:47;;;;;;;4.75;3.58;;;7.20;96.70;;;;;;4962245;28;20129;-74
2023/01/19 00:23:15;;;;;;;4.43;3.83;;;7.20;96.70;;;;;;4925004;29;20110;-72
2023/01/19 00:25:43;;;;;;;5.00;3.67;;;7.20;96.70;;;;;;4918601;29;20059;-72
2023/01/19 00:28:13;;;;;;;4.38;3.60;;;7.30;96.70;;;;;;4924886;29;20048;-73
2023/01/19 00:30:44;;;;;;;6.32;3.80;;;7.30;96.70;;;;;;4921576;29;20155;-73
2023/01/19 00:33:15;;;;;;;5.35;3.90;;;7.30;96.70;;;;;;4905467;29;20111;-73
2023/01/19 00:35:43;;;;;;;5.72;3.92;;;7.30;96.70;;;;;;4905209;29;20873;-73
2023/01/19 00:38:12;;;;;;;5.13;3.88;;;7.30;96.70;;;;;;4906235;29;20063;-72
2023/01/19 00:40:40;;;;;;;4.72;3.25;;;7.40;96.70;;;;;;4906335;29;20062;-73
2023/01/19 00:43:08;;;;;;;4.45;3.20;;;7.40;96.70;;;;;;4905514;29;20041;-72
2023/01/19 00:45:36;;;;;;;4.50;3.13;;;7.40;96.70;;;;;;4911033;29;20399;-72
2023/01/19 00:48:06;;;;;;;6.68;3.53;;;7.50;96.70;;;;;;4912008;29;20494;-72
2023/01/19 00:50:34;;;;;;;2.60;1.98;;;7.50;96.70;;;;;;4908243;29;20052;-72
2023/01/19 00:53:02;;;;;;;3.72;2.40;;;7.50;96.70;;;;;;4914200;29;20726;-73
2023/01/19 00:55:32;;;;;;;3.83;2.35;;;7.40;96.70;;;;;;4911758;29;20056;-73
2023/01/19 00:58:01;;;;;;;2.40;1.90;;;7.40;96.70;;;;;;4917497;29;20103;-73
2023/01/19 01:00:30;;;;;;;2.47;1.90;;;7.40;96.70;;;;;;4923614;29;20462;-72
2023/01/19 01:02:58;;;;;;;1.73;1.55;;;7.40;96.70;;;;;;4924685;29;20054;-72
2023/01/19 01:05:28;;;;;;;2.65;1.90;;;7.30;96.70;;;;;;4922566;29;20044;-72
2023/01/19 01:07:56;;;;;;;3.47;1.80;;;7.20;96.70;;;;;;4915903;29;20525;-73
2023/01/19 01:10:26;;;;;;;3.25;2.03;;;7.20;96.70;;;;;;4920813;29;20408;-72
2023/01/19 01:12:54;;;;;;;1.77;1.58;;;7.10;96.70;;;;;;4918874;29;20080;-72
2023/01/19 01:15:42;;;;;;;2.72;1.80;;;7.20;96.70;;;;;;4916188;29;20048;-72
2023/01/19 01:18:11;;;;;;;2.10;1.60;;;7.30;96.70;;;;;;4911524;29;20162;-72
2023/01/19 01:20:40;;;;;;;2.75;1.92;;;7.30;96.70;;;;;;4925279;29;20052;-74
2023/01/19 01:23:09;;;;;;;2.35;1.88;;;7.30;96.70;;;;;;4960843;28;20472;-73
2023/01/19 01:25:37;;;;;;;2.13;1.75;;;7.30;96.70;;;;;;4965422;28;20218;-73
2023/01/19 01:28:07;;;;;;;2.70;1.48;;;7.30;96.70;;;;;;4948849;28;20385;-73
2023/01/19 01:30:38;;;;;;;1.80;1.38;;;7.40;96.70;;;;;;4953359;28;20039;-73
2023/01/19 01:33:07;;;;;;;2.38;1.67;;;7.40;96.70;;;;;;4965147;28;20050;-72
2023/01/19 01:35:35;;;;;;;2.17;1.20;;;7.40;96.70;;;;;;4965251;28;20105;-73
2023/01/19 01:38:05;;;;;;;2.30;1.05;;;7.30;96.70;;;;;;4957021;28;20109;-74
2023/01/19 01:40:33;;;;;;;1.52;0.80;;;7.40;96.70;;;;;;4963957;28;20082;-73
2023/01/19 01:43:02;;;;;;;0.85;0.55;;;7.40;96.70;;;;;;4965194;28;20133;-73
2023/01/19 01:45:33;;;;;;;2.25;0.80;;;7.40;96.70;;;;;;4958011;28;20042;-73
2023/01/19 01:48:08;;;;;;;1.20;0.70;;;7.50;96.70;;;;;;4966585;28;20135;-73
2023/01/19 01:51:22;;;;;;;0.80;0.60;;;7.40;96.70;;;;;;4965156;28;20417;-73
2023/01/19 01:53:33;;;;;;;0.63;0.40;;;7.40;96.70;;;;;;4953611;28;20066;-74
2023/01/19 01:56:05;;;;;;;1.00;0.60;;;7.50;96.70;;;;;;4959250;28;20154;-74
2023/01/19 01:58:34;;;;;;;1.42;0.50;;;7.40;96.70;;;;;;4945825;28;20048;-73
2023/01/19 02:03:51;;;;;;;0.98;0.40;;;7.50;96.70;;;;;;4966294;28;20117;-73
2023/01/19 02:06:21;;;;;;;0.43;0.30;;;7.50;96.70;;;;;;4976744;28;20042;-73
2023/01/19 02:14:29;;;;;;;1.98;0.70;;;7.40;96.70;;;;;;4948937;28;20113;-73
2023/01/19 02:16:57;;;;;;;1.30;0.90;;;7.40;96.70;;;;;;4958136;28;20464;-73
2023/01/19 02:19:33;;;;;;;1.10;0.80;;;7.30;96.70;;;;;;4945177;28;20105;-73
2023/01/19 02:22:08;;;;;;;1.10;0.60;;;7.30;96.70;;;;;;4946044;28;20118;-72
2023/01/19 02:24:39;;;;;;;1.92;0.82;;;7.10;96.70;;;;;;4947373;28;20138;-73
2023/01/19 02:27:08;;;;;;;0.93;0.73;;;7.10;96.70;;;;;;4952862;28;20051;-73
2023/01/19 02:29:37;;;;;;;1.52;1.00;;;7.20;96.70;;;;;;4952817;28;20059;-73
2023/01/19 02:32:05;;;;;;;1.13;0.75;;;7.20;96.70;;;;;;4959617;28;20043;-73
2023/01/19 02:34:34;;;;;;;1.27;0.60;;;7.20;96.70;;;;;;4963324;28;20081;-73
2023/01/19 02:37:06;;;;;;;1.33;0.70;;;7.10;96.70;;;;;;4958465;28;20054;-73
2023/01/19 02:39:41;;;;;;;0.85;0.43;;;7.10;96.70;;;;;;4977254;28;20055;-73
2023/01/19 02:42:12;;;;;;;1.35;0.50;;;7.20;96.70;;;;;;4956890;28;20172;-73
2023/01/19 02:44:46;;;;;;;2.08;0.63;;;7.20;96.70;;;;;;4952885;28;20074;-74
2023/01/19 02:47:15;;;;;;;0.77;0.40;;;7.20;96.70;;;;;;4956064;28;20137;-73
2023/01/19 02:49:43;;;;;;;0.80;0.30;;;7.30;96.70;;;;;;4964783;28;20658;-72
2023/01/19 02:52:16;;;;;;;1.00;0.30;;;7.30;96.70;;;;;;4961305;28;20047;-73
2023/01/19 02:54:59;;;;;;;2.85;0.63;;;7.30;96.70;;;;;;4963907;28;20054;-72
2023/01/19 02:57:52;;;;;;;1.10;0.40;;;7.20;96.70;;;;;;4948211;28;20398;-73
2023/01/19 03:00:31;;;;;;;2.78;0.60;;;7.20;96.70;;;;;;4946879;28;20051;-73
2023/01/19 03:03:15;;;;;;;9.40;4.05;;;7.20;96.70;;;;;;4945874;28;20498;-73
2023/01/19 03:05:55;;;;;;;2.33;0.73;;;7.10;96.70;;;;;;4954482;28;20046;-73
2023/01/19 03:08:33;;;;;;;2.35;0.77;;;6.90;96.70;;;;;;4964122;28;20046;-73
2023/01/19 03:11:05;;;;;;;2.20;0.63;;;6.70;96.70;;;;;;4954200;28;20058;-74
2023/01/19 03:13:43;;;;;;;3.22;0.57;;;6.70;96.70;;;;;;4952125;28;20453;-73
2023/01/19 03:16:20;;;;;;;1.70;0.52;;;6.80;96.70;;;;;;4944349;28;20061;-73
2023/01/19 03:18:53;;;;;;;1.13;0.75;;;6.90;96.70;;;;;;4945754;28;20047;-73
2023/01/19 03:21:25;;;;;;;1.50;0.82;;;6.90;96.70;;;;;;4946988;28;20059;-73
2023/01/19 03:24:01;;;;;;;2.15;0.82;;;6.90;96.70;;;;;;4944476;28;20484;-74
2023/01/19 03:26:36;;;;;;;1.73;0.70;;;7.00;96.70;;;;;;4948477;28;20082;-73
2023/01/19 03:29:07;;;;;;;1.40;0.60;;;7.00;96.70;;;;;;4964474;28;20043;-73
2023/01/19 03:31:37;;;;;;;2.13;0.50;;;7.00;96.70;;;;;;4962264;28;20086;-73
2023/01/19 03:34:10;;;;;;;1.23;0.35;;;7.00;96.70;;;;;;4954303;28;20058;-73
2023/01/19 03:36:42;;;;;;;2.03;0.47;;;7.00;96.70;;;;;;4964317;28;20059;-73
2023/01/19 03:39:16;;;;;;;1.75;0.30;;;6.90;96.70;;;;;;4962566;28;20133;-73
2023/01/19 03:41:49;;;;;;;0.60;0.20;;;6.80;96.70;;;;;;4955986;28;20419;-73
2023/01/19 03:44:17;;;;;;;2.28;0.25;;;6.70;96.70;;;;;;4949996;28;20887;-73
2023/01/19 03:46:47;;;;;;;1.00;0.20;;;6.70;96.70;;;;;;4949001;28;20053;-73
2023/01/19 03:49:16;;;;;;;0.40;0.10;;;6.80;96.70;;;;;;4978623;28;20500;-72
2023/01/19 03:51:45;;;;;;;1.05;0.30;;;6.70;96.70;;;;;;4947027;28;20044;-73
2023/01/19 03:54:13;;;;;;;0.55;0.30;;;6.60;96.70;;;;;;4943381;28;20082;-72
2023/01/19 03:56:43;;;;;;;1.65;0.55;;;6.70;96.70;;;;;;4943399;28;20066;-73
2023/01/19 03:59:16;;;;;;;1.38;0.20;;;6.80;96.70;;;;;;4947370;28;20079;-72
2023/01/19 04:01:44;;;;;;;2.13;0.30;;;6.80;96.70;;;;;;4947339;28;20047;-73
2023/01/19 04:04:14;;;;;;;1.60;0.68;;;6.90;96.70;;;;;;4944931;28;20051;-73
2023/01/19 04:06:43;;;;;;;0.77;0.50;;;6.80;96.70;;;;;;4953470;28;20704;-73
2023/01/19 04:09:11;;;;;;;0.65;0.30;;;6.70;96.70;;;;;;4965336;28;20126;-73
2023/01/19 04:11:40;;;;;;;0.50;0.20;;;6.70;96.70;;;;;;4978318;28;20050;-73
2023/01/19 04:14:08;;;;;;;1.17;0.15;;;6.80;96.70;;;;;;4978400;28;20042;-72
2023/01/19 04:16:38;;;;;;;0.98;0.20;;;6.80;96.70;;;;;;4957302;28;20075;-73
2023/01/19 04:19:07;;;;;;;1.38;0.32;;;6.90;96.70;;;;;;4948421;28;20073;-72
2023/01/19 04:21:35;;;;;;;0.75;0.30;;;6.90;96.70;;;;;;4952162;28;20082;-72
2023/01/19 04:24:04;;;;;;;1.27;0.43;;;6.90;96.70;;;;;;4954128;28;20050;-73
2023/01/19 04:26:33;;;;;;;0.77;0.30;;;6.90;96.70;;;;;;4959007;28;20043;-73
2023/01/19 04:29:02;;;;;;;1.45;0.20;;;6.90;96.70;;;;;;4949125;28;20043;-73
2023/01/19 04:31:30;;;;;;;0.60;0.40;;;6.90;96.70;;;;;;4947069;28;20122;-72
2023/01/19 04:34:00;;;;;;;0.90;0.38;;;6.90;96.70;;;;;;4942742;28;20595;-73
2023/01/19 04:36:29;;;;;;;0.73;0.20;;;7.00;96.70;;;;;;4946507;28;20047;-72
2023/01/19 04:38:57;;;;;;;1.98;0.20;;;7.00;96.70;;;;;;4958762;28;20339;-73
2023/01/19 04:41:26;;;;;;;1.38;0.15;;;7.00;96.70;;;;;;4952869;28;20046;-73
2023/01/19 04:43:57;;;;;;;1.65;0.20;;;6.90;96.70;;;;;;4963611;28;20046;-73
2023/01/19 04:46:25;;;;;;;1.38;0.13;;;7.00;96.70;;;;;;4964457;28;20042;-73
2023/01/19 04:48:54;;;;;;;1.75;0.32;;;7.00;96.70;;;;;;4965687;28;20076;-72
2023/01/19 04:51:24;;;;;;;2.70;1.23;;;6.90;96.70;;;;;;4962758;28;20824;-73
2023/01/19 04:53:52;;;;;;;1.90;0.20;;;6.80;96.70;;;;;;4948000;28;20413;-73
2023/01/19 04:56:21;;;;;;;0.43;0.30;;;6.70;96.70;;;;;;4946590;28;20043;-73
2023/01/19 04:58:49;;;;;;;1.70;0.30;;;6.80;96.70;;;;;;4958437;28;20050;-72
2023/01/19 05:01:18;;;;;;;1.40;0.28;;;6.90;96.70;;;;;;4947743;28;20090;-74
2023/01/19 05:03:46;;;;;;;1.13;0.30;;;7.00;96.70;;;;;;4946573;28;20066;-73
2023/01/19 05:06:15;;;;;;;1.00;0.20;;;7.00;96.70;;;;;;4952628;28;20126;-73
2023/01/19 05:08:45;;;;;;;3.97;1.38;;;7.00;96.70;;;;;;4981432;28;20726;-73
2023/01/19 05:11:13;;;;;;;0.73;0.20;;;7.00;96.70;;;;;;4949582;28;20053;-73
2023/01/19 05:13:42;;;;;;;0.65;0.20;;;7.00;96.70;;;;;;4957215;28;20074;-74
2023/01/19 05:16:12;;;;;;;1.45;0.20;;;7.00;96.70;;;;;;4948419;28;20046;-72
2023/01/19 05:18:41;;;;;;;0.57;0.20;;;7.00;96.70;;;;;;4946417;28;20066;-71
2023/01/19 05:21:09;;;;;;;0.93;0.40;;;6.90;96.70;;;;;;4952508;28;20857;-72
2023/01/19 05:23:38;;;;;;;2.00;0.22;;;7.00;96.70;;;;;;4965146;28;20047;-72
2023/01/19 05:26:08;;;;;;;0.60;0.30;;;7.00;96.70;;;;;;4960196;28;20817;-71
2023/01/19 05:28:37;;;;;;;0.60;0.40;;;7.00;96.70;;;;;;4965507;28;20054;-72
2023/01/19 05:31:06;;;;;;;0.82;0.32;;;7.00;96.70;;;;;;4964613;28;20042;-72
2023/01/19 05:33:35;;;;;;;1.25;0.60;;;7.00;96.70;;;;;;4963819;28;20054;-72
2023/01/19 05:36:03;;;;;;;1.83;0.55;;;7.00;96.70;;;;;;4957749;28;20046;-72
2023/01/19 05:38:32;;;;;;;2.75;0.73;;;7.00;96.70;;;;;;4946788;28;20050;-72
2023/01/19 05:41:03;;;;;;;0.88;0.40;;;7.00;96.70;;;;;;4948671;28;20488;-72
2023/01/19 05:43:33;;;;;;;2.38;0.47;;;7.00;96.70;;;;;;4946746;28;20078;-72
2023/01/19 05:46:03;;;;;;;0.88;0.30;;;7.00;96.70;;;;;;4952368;28;20125;-72
2023/01/19 05:48:32;;;;;;;1.48;0.50;;;7.00;96.70;;;;;;4944802;28;20055;-72
2023/01/19 05:51:00;;;;;;;2.65;0.55;;;6.90;96.70;;;;;;4945312;28;20040;-72
2023/01/19 05:53:29;;;;;;;1.17;0.70;;;6.90;96.70;;;;;;4961937;28;20412;-72
2023/01/19 05:56:01;;;;;;;2.55;0.55;;;6.90;96.70;;;;;;4960700;28;20039;-73
2023/01/19 05:58:33;;;;;;;1.65;0.50;;;6.90;96.70;;;;;;4944573;28;20709;-72
2023/01/19 06:01:06;;;;;;;2.38;0.60;;;6.60;96.70;;;;;;4944889;28;20070;-72
2023/01/19 06:03:35;;;;;;;1.17;0.57;;;6.40;96.70;;;;;;4960304;28;20047;-72
2023/01/19 06:06:04;;;;;;;2.67;0.68;;;6.40;96.70;;;;;;4952666;28;20453;-72
2023/01/19 06:08:33;;;;;;;2.30;0.60;;;6.40;96.70;;;;;;4956396;28;20101;-72
2023/01/19 06:11:04;;;;;;;2.35;0.85;;;6.30;96.70;;;;;;4970151;28;20041;-72
2023/01/19 06:13:34;;;;;;;1.85;0.60;;;6.30;96.70;;;;;;4965404;28;20090;-73
2023/01/19 06:16:03;;;;;;;0.85;0.30;;;6.20;96.70;;;;;;4963256;28;20609;-73
2023/01/19 06:18:31;;;;;;;0.22;0.10;;;6.10;96.70;;;;;;4947410;28;20035;-74
2023/01/19 06:21:03;;;;;;;0.85;0.20;;;6.10;96.70;;;;;;4900481;28;1572662;-73
2023/01/19 06:23:33;;;;;;;3.30;0.50;;;6.10;96.70;;;;;;4958785;28;20058;-73
2023/01/19 06:26:02;;;;;;;0.52;0.10;;;6.00;96.70;;;;;;4963393;28;20049;-73
2023/01/19 06:28:33;;;;;;;0.75;0.15;;;5.90;96.70;;;;;;4964854;28;20121;-73
2023/01/19 06:31:02;;;;;;;0.45;0.00;;;5.70;96.70;;;;;;4962708;28;20047;-73
2023/01/19 06:33:31;;;;;;;0.17;0.10;;;5.60;96.70;;;;;;4963670;28;20602;-74
2023/01/19 06:35:59;;;;;;;0.00;0.00;;;5.50;96.70;;;;;;4959956;28;20039;-73
2023/01/19 06:38:28;;;;;;;0.38;0.10;;;5.40;96.70;;;;;;4962148;28;20043;-73
2023/01/19 06:40:57;;;;;;;0.98;0.00;;;5.40;96.70;;;;;;4956881;28;20036;-73
2023/01/19 06:43:26;;;;;;;0.77;0.30;;;5.40;96.70;;;;;;4961968;28;20043;-74
2023/01/19 06:45:56;;;;;;;0.20;0.10;;;5.60;96.70;;;;;;4963949;28;20043;-74
2023/01/19 06:48:25;;;;;;;0.22;0.00;;;5.60;96.70;;;;;;4956687;28;20130;-73
2023/01/19 06:50:54;;;;;;;0.82;0.30;;;5.70;96.70;;;;;;4953699;28;20050;-73
2023/01/19 06:53:27;;;;;;;0.50;0.38;;;5.80;96.70;;;;;;4930252;28;20402;-74
2023/01/19 06:55:59;;;;;;;0.73;0.30;;;5.80;96.70;;;;;;4946265;28;20116;-74
2023/01/19 06:58:28;;;;;;;0.47;0.30;;;5.90;96.70;;;;;;4963818;28;20054;-73
2023/01/19 07:01:02;;;;;;;0.82;0.20;;;5.80;96.70;;;;;;4964212;28;20556;-73
2023/01/19 07:03:32;;;;;;;1.48;0.20;;;5.90;96.70;;;;;;4949975;28;20651;-74
2023/01/19 07:06:05;;;;;;;0.28;0.13;;;6.00;96.70;;;;;;4944425;28;20042;-73
2023/01/19 07:08:34;;;;;;;5.57;2.25;;;5.90;96.70;;;;;;4956964;28;20054;-74
2023/01/19 07:11:05;;;;;;;36.22;26.80;;;5.90;96.70;;;;;;4954934;28;20045;-74
2023/01/19 07:13:54;;;;;;;7.43;5.13;;;5.90;96.70;;;;;;4978073;28;20548;-73
2023/01/19 07:16:24;;;;;;;6.32;4.07;;;5.90;96.70;;;;;;4963174;28;20039;-75
2023/01/19 07:18:54;;;;;;;4.28;2.72;;;6.00;96.70;;;;;;4954859;28;20039;-73
2023/01/19 07:21:23;;;;;;;4.40;1.63;;;6.10;96.70;;;;;;4949985;28;20062;-73
2023/01/19 07:23:52;;;;;;;3.45;1.38;;;6.10;96.70;;;;;;4956256;28;20492;-74
2023/01/19 07:26:23;;;;;;;2.45;1.05;;;6.20;96.70;;;;;;4963286;28;20705;-73
2023/01/19 07:28:52;;;;;;;2.92;0.88;;;6.20;96.70;;;;;;4945447;28;20042;-73
2023/01/19 07:31:20;;;;;;;4.43;1.20;;;6.30;96.70;;;;;;4941273;28;20055;-73
2023/01/19 07:33:51;;;;;;;4.18;1.17;;;6.30;96.70;;;;;;4949531;28;20067;-73
2023/01/19 07:36:20;;;;;;;2.50;0.98;;;6.30;96.70;;;;;;4959673;28;20046;-74
2023/01/19 07:38:48;;;;;;;3.65;1.08;;;6.40;96.70;;;;;;4962789;28;20105;-74
2023/01/19 07:41:17;;;;;;;2.08;0.80;;;6.40;96.70;;;;;;4947938;28;20039;-73
2023/01/19 07:43:46;;;;;;;1.83;1.05;;;6.50;96.70;;;;;;4964009;28;20114;-74
2023/01/19 07:46:14;;;;;;;2.05;0.52;;;6.50;96.70;;;;;;4962489;28;20039;-74
2023/01/19 07:48:43;;;;;;;3.50;0.57;;;6.60;96.70;;;;;;4956679;28;20521;-73
2023/01/19 07:51:17;;;;;;;1.67;0.55;;;6.70;96.70;;;;;;4943975;28;20170;-73
2023/01/19 07:53:48;;;;;;;1.65;0.57;;;6.70;96.70;;;;;;4968806;28;20073;-74
2023/01/19 07:56:17;;;;;;;1.25;0.52;;;6.70;96.70;;;;;;4945913;28;20051;-73
2023/01/19 07:58:45;;;;;;;0.90;0.40;;;6.60;96.70;;;;;;4945086;28;20493;-73
2023/01/19 08:01:14;;;;;;;2.67;0.50;;;6.60;96.70;;;;;;4972573;28;20094;-73
2023/01/19 08:03:43;;;;;;;0.52;0.30;;;6.60;96.70;;;;;;4960705;28;20526;-73
2023/01/19 08:06:20;;;;;;;3.92;0.90;;;6.70;96.70;;;;;;4976788;28;20888;-75
2023/01/19 08:08:49;;;;;;;0.90;0.65;;;6.70;96.70;;;;;;4951386;28;20569;-75
2023/01/19 08:11:17;;;;;;;1.60;0.70;;;6.70;96.70;;;;;;4958014;28;20103;-74
2023/01/19 08:13:46;;;;;;;1.92;0.63;;;6.80;96.70;;;;;;4977599;28;20054;-74
2023/01/19 08:16:14;;;;;;;1.02;0.70;;;6.80;96.70;;;;;;4954103;28;20051;-74
2023/01/19 08:18:43;;;;;;;1.83;0.75;;;6.90;96.70;;;;;;4952843;28;20055;-73
2023/01/19 08:21:13;;;;;;;1.75;0.73;;;7.00;96.70;;;;;;4965356;28;20055;-75
2023/01/19 08:23:42;;;;;;;1.40;0.70;;;7.00;96.70;;;;;;4963517;28;20050;-76
2023/01/19 08:26:22;;;;;;;0.80;0.50;;;7.10;96.70;;;;;;4978276;28;20043;-73
2023/01/19 08:28:51;;;;;;;1.40;0.45;;;7.10;96.70;;;;;;4950415;28;20050;-75
2023/01/19 08:31:20;;;;;;;1.05;0.50;;;7.10;96.70;;;;;;4945592;28;20509;-73
2023/01/19 08:33:52;;;;;;;0.85;0.50;;;7.20;96.70;;;;;;4943138;28;20051;-74
2023/01/19 08:36:23;;;;;;;0.82;0.32;;;7.30;96.70;;;;;;4945038;28;20143;-73
2023/01/19 08:38:52;;;;;;;1.08;0.45;;;7.30;96.70;;;;;;4943945;28;20502;-72
2023/01/19 08:41:21;;;;;;;0.80;0.35;;;7.30;96.70;;;;;;4946312;28;20161;-73
2023/01/19 08:43:49;;;;;;;0.90;0.40;;;7.40;96.70;;;;;;4976013;28;20046;-73
2023/01/19 08:46:20;;;;;;;0.57;0.25;;;7.40;96.70;;;;;;4963982;28;20050;-73
2023/01/19 08:48:49;;;;;;;0.57;0.30;;;7.40;96.70;;;;;;4961807;28;20065;-74
2023/01/19 08:51:18;;;;;;;0.80;0.30;;;7.40;96.70;;;;;;4961952;28;20046;-74
2023/01/19 08:53:48;;;;;;;0.63;0.30;;;7.50;96.70;;;;;;4949271;28;20055;-73
2023/01/19 08:56:17;;;;;;;0.47;0.25;;;7.60;96.70;;;;;;4952331;28;20059;-74
2023/01/19 08:58:47;;;;;;;0.93;0.38;;;7.60;96.70;;;;;;4956869;28;20043;-73
2023/01/19 09:01:35;;;;;;;0.63;0.20;;;7.70;96.70;;;;;;4943826;28;20047;-73
2023/01/19 09:04:05;;;;;;;0.68;0.50;;;7.70;96.70;;;;;;4944284;28;20043;-73
2023/01/19 09:06:33;;;;;;;1.58;0.28;;;7.80;96.70;;;;;;4943241;28;20047;-73
2023/01/19 09:09:03;;;;;;;0.57;0.20;;;7.90;96.70;;;;;;4944444;28;20043;-73
2023/01/19 09:11:33;;;;;;;0.68;0.30;;;7.90;96.70;;;;;;4943171;28;20126;-73
2023/01/19 09:14:02;;;;;;;1.23;0.35;;;8.00;96.70;;;;;;4958101;28;20563;-73
2023/01/19 09:16:31;;;;;;;0.40;0.28;;;8.10;96.70;;;;;;4943415;28;20075;-73
2023/01/19 09:19:00;;;;;;;1.75;0.30;;;8.20;96.70;;;;;;4960438;28;20751;-73
2023/01/19 09:21:28;;;;;;;1.13;0.40;;;8.30;96.70;;;;;;4951418;28;20062;-74
2023/01/19 09:23:57;;;;;;;0.75;0.50;;;8.40;96.70;;;;;;4947867;28;20039;-73
2023/01/19 09:26:27;;;;;;;0.63;0.40;;;8.40;96.70;;;;;;4929817;28;20043;-73
2023/01/19 09:28:56;;;;;;;1.08;0.50;;;8.50;96.70;;;;;;4948281;28;20623;-74
2023/01/19 09:31:24;;;;;;;1.10;0.30;;;8.50;96.70;;;;;;4956614;28;20650;-73
2023/01/19 09:33:53;;;;;;;1.25;0.20;;;8.50;96.70;;;;;;4964872;28;20504;-74
2023/01/19 09:36:21;;;;;;;0.60;0.20;;;8.60;96.70;;;;;;4959178;28;20113;-73
2023/01/19 09:38:50;;;;;;;0.55;0.20;;;8.70;96.70;;;;;;4954188;28;20051;-73
2023/01/19 09:41:21;;;;;;;0.35;0.17;;;8.70;96.70;;;;;;4948730;28;20071;-73
2023/01/19 09:43:56;;;;;;;0.30;0.10;;;8.80;96.70;;;;;;4955615;28;20042;-73
2023/01/19 09:46:32;;;;;;;1.10;0.20;;;8.80;96.70;;;;;;4948074;28;20039;-73
2023/01/19 09:49:03;;;;;;;;;;;8.80;96.70;;;;;;4956897;28;20075;-73
2023/01/19 09:51:37;;;;;;;0.60;0.30;;;8.80;96.70;;;;;;4954004;28;19976;-74
2023/01/19 09:54:14;;;;;;;1.23;0.40;;;8.90;96.70;;;;;;4945987;28;20043;-73
2023/01/19 09:56:44;;;;;;;2.03;0.52;;;9.00;96.70;;;;;;4959631;28;20055;-73
2023/01/19 09:59:24;;;;;;;1.30;0.35;;;9.00;96.70;;;;;;4948727;28;20044;-73
2023/01/19 10:02:14;;;;;;;1.20;0.30;;;9.00;96.70;;;;;;4953817;28;20525;-73
2023/01/19 10:04:49;;;;;;;1.02;0.40;;;9.00;96.70;;;;;;4952494;28;20600;-73
2023/01/19 10:07:32;;;;;;;0.60;0.40;;;9.10;96.70;;;;;;4956792;28;20397;-73
2023/01/19 10:10:10;;;;;;;0.93;0.20;;;9.10;96.70;;;;;;4947691;28;20061;-73
2023/01/19 10:12:50;;;;;;;0.50;0.20;;;9.20;96.70;;;;;;4954639;28;20126;-74
2023/01/19 10:15:31;;;;;;;2.08;0.30;;;9.10;96.70;;;;;;4955244;28;20086;-73
2023/01/19 10:18:11;;;;;;;0.40;0.20;;;9.00;96.70;;;;;;4941793;28;20169;-73
2023/01/19 10:20:44;;;;;;;1.10;0.20;;;9.10;96.70;;;;;;4951409;28;20437;-74
2023/01/19 10:23:33;;;;;;;0.82;0.22;;;9.00;96.70;;;;;;4945507;28;20059;-74
2023/01/19 10:26:08;;;;;;;0.45;0.20;;;9.00;96.70;;;;;;4964073;28;20049;-73
2023/01/19 10:28:38;;;;;;;0.50;0.30;;;9.00;96.70;;;;;;4965308;28;20065;-74
2023/01/19 10:31:08;;;;;;;0.88;0.40;;;9.10;96.70;;;;;;4957175;28;20043;-74
2023/01/19 10:33:38;;;;;;;0.95;0.40;;;9.20;96.70;;;;;;4955487;28;20154;-73
2023/01/19 10:36:16;;;;;;;0.50;0.20;;;9.20;96.70;;;;;;4961084;28;20050;-73
2023/01/19 10:38:45;;;;;;;0.98;0.28;;;9.10;96.70;;;;;;4954379;28;20046;-73
2023/01/19 10:41:18;;;;;;;0.60;0.28;;;9.00;96.70;;;;;;4948066;28;20137;-73
2023/01/19 10:43:47;;;;;;;0.50;0.20;;;8.90;96.70;;;;;;4960369;28;20051;-73
2023/01/19 10:46:21;;;;;;;0.28;0.15;;;8.90;96.70;;;;;;4964058;28;20046;-73
2023/01/19 10:48:51;;;;;;;0.35;0.20;;;8.80;96.70;;;;;;4965374;28;20043;-73
2023/01/19 10:51:20;;;;;;;0.25;0.13;;;8.80;96.70;;;;;;4959010;28;20043;-73
2023/01/19 10:53:57;;;;;;;1.05;0.52;;;8.70;96.70;;;;;;4953606;28;20570;-73
2023/01/19 10:56:30;;;;;;;0.93;0.40;;;8.70;96.70;;;;;;4952392;28;20134;-74
2023/01/19 10:59:01;;;;;;;1.00;0.50;;;8.60;96.70;;;;;;4952628;28;20043;-73
2023/01/19 11:01:35;;;;;;;1.08;0.68;;;8.60;96.70;;;;;;4944872;28;20138;-73
2023/01/19 11:04:26;;;;;;;3.65;1.00;;;8.60;96.70;;;;;;4945816;28;20143;-74
2023/01/19 11:07:12;;;;;;;0.93;0.65;;;8.60;96.70;;;;;;4955690;28;20051;-73
2023/01/19 11:09:40;;;;;;;2.53;1.50;;;8.60;96.70;;;;;;4964749;28;20043;-73
2023/01/19 11:12:19;;;;;;;1.67;1.05;;;8.70;96.70;;;;;;4965074;28;20133;-73
2023/01/19 11:14:49;;;;;;;1.60;0.70;;;8.80;96.70;;;;;;4955913;28;20500;-73
2023/01/19 11:17:23;;;;;;;1.08;0.60;;;8.80;96.70;;;;;;4957603;28;20047;-74
2023/01/19 11:19:58;;;;;;;2.05;0.50;;;8.90;96.70;;;;;;4963453;28;20130;-73
2023/01/19 11:22:29;;;;;;;1.42;0.50;;;8.90;96.70;;;;;;4944439;28;20054;-74
2023/01/19 11:25:03;;;;;;;1.20;0.55;;;8.90;96.70;;;;;;4969278;28;20669;-73
2023/01/19 11:27:35;;;;;;;1.35;0.55;;;8.80;96.70;;;;;;4944031;28;20608;-74
2023/01/19 11:30:09;;;;;;;3.50;1.95;;;8.80;96.70;;;;;;4951556;28;20163;-73
2023/01/19 11:32:40;;;;;;;2.67;1.30;;;8.70;96.70;;;;;;4945875;28;20043;-74
2023/01/19 11:35:36;;;;;;;1.67;1.15;;;8.70;96.70;;;;;;4954463;28;20184;-73
2023/01/19 11:38:17;;;;;;;2.45;1.33;;;8.60;96.70;;;;;;4945114;28;20051;-74
2023/01/19 11:40:56;;;;;;;1.75;0.90;;;8.60;96.70;;;;;;4946158;28;20138;-74
2023/01/19 11:43:28;;;;;;;1.45;0.80;;;8.50;96.70;;;;;;4949826;28;20050;-74
2023/01/19 11:46:12;;;;;;;2.05;0.90;;;8.50;96.70;;;;;;4959852;28;20058;-74
2023/01/19 11:48:46;;;;;;;1.15;0.43;;;8.50;96.70;;;;;;4961273;28;20042;-74
2023/01/19 11:51:18;;;;;;;2.10;1.50;;;8.40;96.70;;;;;;4959505;28;20047;-74
2023/01/19 11:53:51;;;;;;;2.67;1.17;;;8.50;96.70;;;;;;4961093;28;20146;-74
2023/01/19 11:56:24;;;;;;;1.90;1.20;;;8.50;96.70;;;;;;4956632;28;20051;-74
2023/01/19 11:58:52;;;;;;;1.92;1.25;;;8.50;96.70;;;;;;4959153;28;20051;-75
2023/01/19 12:01:23;;;;;;;1.45;0.73;;;8.50;96.70;;;;;;4944404;28;20191;-73
2023/01/19 12:03:59;;;;;;;2.17;0.85;;;8.50;96.70;;;;;;4948110;28;20058;-73
2023/01/19 12:06:31;;;;;;;2.95;0.80;;;8.50;96.70;;;;;;4945659;28;20051;-73
2023/01/19 12:09:04;;;;;;;2.72;0.68;;;8.40;96.70;;;;;;4944366;28;20081;-73
2023/01/19 12:11:37;;;;;;;2.30;0.30;;;8.20;96.70;;;;;;4943629;28;20047;-74
2023/01/19 12:14:14;;;;;;;2.33;0.32;;;8.10;96.70;;;;;;4945755;28;20645;-74
2023/01/19 12:16:44;;;;;;;6.97;4.20;;;7.90;96.70;;;;;;4951674;28;20050;-74
2023/01/19 12:19:17;;;;;;;3.15;1.08;;;7.90;96.70;;;;;;4962544;28;20520;-73
2023/01/19 12:21:47;;;;;;;2.72;1.23;;;7.90;96.70;;;;;;4954336;28;20061;-73
2023/01/19 12:24:26;;;;;;;3.78;1.05;;;7.80;96.70;;;;;;4961005;28;20050;-74
2023/01/19 12:26:59;;;;;;;3.03;0.70;;;7.70;96.70;;;;;;4962230;28;20047;-74
2023/01/19 12:29:32;;;;;;;3.67;0.70;;;7.70;96.70;;;;;;4971960;28;20460;-73
2023/01/19 12:32:30;;;;;;;1.33;0.52;;;7.60;96.70;;;;;;4961340;28;20038;-74
2023/01/19 12:35:01;;;;;;;1.13;0.50;;;7.60;96.70;;;;;;4964725;28;20583;-75
2023/01/19 12:37:41;;;;;;;2.58;0.70;;;7.40;96.70;;;;;;4942318;28;21199;-73
2023/01/19 12:40:30;;;;;;;0.47;0.25;;;7.40;96.70;;;;;;4943021;28;20055;-73
2023/01/19 12:43:02;;;;;;;2.58;0.60;;;7.40;96.70;;;;;;4962130;28;20058;-73
2023/01/19 12:45:33;;;;;;;1.45;0.77;;;7.30;96.70;;;;;;4961849;28;20444;-73
2023/01/19 12:48:02;;;;;;;1.77;1.05;;;7.30;96.70;;;;;;4960806;28;20062;-73
2023/01/19 12:50:39;;;;;;;2.28;0.47;;;7.20;96.70;;;;;;4954164;28;20489;-73
2023/01/19 12:53:18;;;;;;;2.75;0.70;;;7.10;96.70;;;;;;4951784;28;20078;-73
2023/01/19 12:55:58;;;;;;;0.90;0.47;;;6.80;96.70;;;;;;4962353;28;20051;-74
2023/01/19 12:58:27;;;;;;;1.83;1.00;;;6.60;96.70;;;;;;4944773;28;20532;-73
2023/01/19 13:01:14;;;;;;;4.00;2.13;;;6.50;96.70;;;;;;4942863;28;20050;-73
2023/01/19 13:03:56;;;;;;;3.35;2.20;;;6.40;96.70;;;;;;4944663;28;20049;-73
2023/01/19 13:06:59;;;;;;;3.13;1.70;;;6.30;96.70;;;;;;4946103;28;20047;-74
2023/01/19 13:09:33;;;;;;;4.70;3.00;;;6.40;96.70;;;;;;4951985;28;20490;-74
2023/01/19 13:12:19;;;;;;;6.80;4.40;;;6.40;96.70;;;;;;4951420;28;20047;-74
2023/01/19 13:14:49;;;;;;;1.80;0.70;;;6.30;96.70;;;;;;4949041;28;20073;-73
2023/01/19 13:17:32;;;;;;;2.90;0.60;;;6.20;96.70;;;;;;4958478;28;20054;-73
2023/01/19 13:20:18;;;;;;;1.30;0.35;;;6.30;96.70;;;;;;4980999;28;20472;-74
2023/01/19 13:23:18;;;;;;;5.15;0.98;;;6.50;96.70;;;;;;4964045;28;20058;-73
2023/01/19 13:26:10;;;;;;;1.83;0.63;;;6.60;96.70;;;;;;4958661;28;20057;-73
2023/01/19 13:28:41;;;;;;;1.85;0.40;;;6.70;96.70;;;;;;4949496;28;20166;-74
2023/01/19 13:31:11;;;;;;;13.30;7.45;;;6.70;96.70;;;;;;4951421;28;20047;-73